createdAt,value
2018-01-01T14:23:36.591Z,982.25
2018-01-01T14:24:36.555Z,982.32
2018-01-01T14:26:30.117Z,982.25
2018-01-01T14:27:30.386Z,982.29
2018-01-01T14:28:29.970Z,982.22
2018-01-01T14:29:30.008Z,982.16
2018-01-01T14:30:30.059Z,982.22
2018-01-01T14:31:29.934Z,982.16
2018-01-01T14:32:29.918Z,982.11
2018-01-01T14:33:29.892Z,982.10
2018-01-01T14:34:29.898Z,982.03
2018-01-01T14:35:29.928Z,981.95
2018-01-01T14:36:29.866Z,981.90
2018-01-01T14:37:29.891Z,981.91
2018-01-01T14:38:29.898Z,981.90
2018-01-01T14:39:29.857Z,981.80
2018-01-01T14:40:29.838Z,981.89
2018-01-01T14:41:29.886Z,981.85
2018-01-01T14:42:29.821Z,981.80
2018-01-01T14:43:29.831Z,981.73
2018-01-01T14:44:29.815Z,981.74
2018-01-01T14:45:29.796Z,981.67
2018-01-01T14:46:29.790Z,981.63
2018-01-01T14:47:29.821Z,981.62
2018-01-01T14:48:29.781Z,981.58
2018-01-01T14:49:29.790Z,981.53
2018-01-01T14:50:29.757Z,981.54
2018-01-01T14:51:29.748Z,981.47
2018-01-01T14:52:29.744Z,981.47
2018-01-01T14:53:29.748Z,981.37
2018-01-01T14:54:29.740Z,981.36
2018-01-01T14:55:29.725Z,981.32
2018-01-01T14:56:29.712Z,981.21
2018-01-01T14:57:29.705Z,981.24
2018-01-01T14:58:29.719Z,981.19
2018-01-01T14:59:29.715Z,981.17
2018-01-01T15:00:29.691Z,981.14
2018-01-01T15:01:29.670Z,981.11
2018-01-01T15:02:29.732Z,981.18
2018-01-01T15:03:29.654Z,981.10
2018-01-01T15:04:29.664Z,981.05
2018-01-01T15:05:29.647Z,981.02
2018-01-01T15:06:29.645Z,980.99
2018-01-01T15:07:29.625Z,981.02
2018-01-01T15:08:29.619Z,981.02
2018-01-01T15:09:29.638Z,980.99
2018-01-01T15:10:29.625Z,981.07
2018-01-01T15:11:29.596Z,980.92
2018-01-01T15:12:29.606Z,980.98
2018-01-01T15:13:29.586Z,980.96
2018-01-01T15:14:29.610Z,981.03
2018-01-01T15:15:36.716Z,980.98
2018-01-01T15:17:22.518Z,981.00
2018-01-01T15:18:22.495Z,980.98
2018-01-01T15:20:15.345Z,981.02
2018-01-01T15:21:15.337Z,981.02
2018-01-01T15:23:08.219Z,980.98
2018-01-01T15:24:08.187Z,980.82
2018-01-01T15:26:01.045Z,980.70
2018-01-01T15:27:01.032Z,980.63
2018-01-01T15:28:53.908Z,980.55
2018-01-01T15:29:53.896Z,980.43
2018-01-01T15:31:46.770Z,980.41
2018-01-01T15:32:46.760Z,980.41
2018-01-01T15:34:39.624Z,980.42
2018-01-01T15:35:39.608Z,980.36
2018-01-01T15:37:32.466Z,980.36
2018-01-01T15:38:32.456Z,980.35
2018-01-01T15:40:25.336Z,980.27
2018-01-01T15:41:25.371Z,980.33
2018-01-01T15:43:18.173Z,980.23
2018-01-01T15:44:18.181Z,980.19
2018-01-01T15:45:18.235Z,980.18
2018-01-01T15:46:18.175Z,980.21
2018-01-01T15:47:18.127Z,980.24
2018-01-01T15:48:18.111Z,980.15
2018-01-01T15:49:18.101Z,980.18
2018-01-01T15:50:18.091Z,980.14
2018-01-01T15:51:18.082Z,980.09
2018-01-01T15:52:18.073Z,980.08
2018-01-01T15:53:18.059Z,980.06
2018-01-01T15:54:18.051Z,980.00
2018-01-01T15:55:18.044Z,979.97
2018-01-01T15:56:18.031Z,980.02
2018-01-01T15:57:18.028Z,979.94
2018-01-01T15:58:18.009Z,979.99
2018-01-01T15:59:18.005Z,980.02
2018-01-01T16:00:18.533Z,979.95
2018-01-01T16:01:17.979Z,979.94
2018-01-01T16:02:17.967Z,979.94
2018-01-01T16:03:17.957Z,979.92
2018-01-01T16:04:17.957Z,979.98
2018-01-01T16:05:17.940Z,979.96
2018-01-01T16:06:17.928Z,979.89
2018-01-01T16:07:17.928Z,979.89
2018-01-01T16:08:17.909Z,979.86
2018-01-01T16:09:17.900Z,979.77
2018-01-01T16:10:17.899Z,979.74
2018-01-01T16:11:17.879Z,979.64
2018-01-01T16:12:17.897Z,979.74
2018-01-01T16:13:17.857Z,979.68
2018-01-01T16:14:17.851Z,979.72
2018-01-01T16:15:17.834Z,979.59
2018-01-01T16:16:17.826Z,979.66
2018-01-01T16:17:17.959Z,979.59
2018-01-01T16:18:17.802Z,979.63
2018-01-01T16:19:17.800Z,979.58
2018-01-01T16:20:17.783Z,979.57
2018-01-01T16:21:17.774Z,979.48
2018-01-01T16:22:17.768Z,979.57
2018-01-01T16:23:17.758Z,979.49
2018-01-01T16:24:17.744Z,979.45
2018-01-01T16:25:17.734Z,979.44
2018-01-01T16:26:17.722Z,979.38
2018-01-01T16:27:17.709Z,979.39
2018-01-01T16:28:17.709Z,979.37
2018-01-01T16:29:17.692Z,979.33
2018-01-01T16:30:17.680Z,979.35
2018-01-01T16:31:17.674Z,979.26
2018-01-01T16:32:17.660Z,979.24
2018-01-01T16:33:17.651Z,979.27
2018-01-01T16:34:17.642Z,979.18
2018-01-01T16:35:17.632Z,979.12
2018-01-01T16:36:17.619Z,979.21
2018-01-01T16:37:17.616Z,979.03
2018-01-01T16:38:17.704Z,978.99
2018-01-01T16:39:17.591Z,978.96
2018-01-01T16:40:17.579Z,978.93
2018-01-01T16:41:17.574Z,978.93
2018-01-01T16:42:17.562Z,978.94
2018-01-01T16:43:17.555Z,978.90
2018-01-01T16:44:17.536Z,978.94
2018-01-01T16:45:17.529Z,978.84
2018-01-01T16:46:17.520Z,978.84
2018-01-01T16:47:17.515Z,978.82
2018-01-01T16:48:17.504Z,978.78
2018-01-01T16:49:17.487Z,978.82
2018-01-01T16:50:17.475Z,978.73
2018-01-01T16:51:17.468Z,978.73
2018-01-01T16:52:17.462Z,978.74
2018-01-01T16:53:17.446Z,978.70
2018-01-01T16:54:17.443Z,978.71
2018-01-01T16:55:17.424Z,978.70
2018-01-01T16:56:17.417Z,978.70
2018-01-01T16:57:17.405Z,978.59
2018-01-01T16:58:17.395Z,978.68
2018-01-01T16:59:17.395Z,978.74
2018-01-01T17:00:17.369Z,978.67
2018-01-01T17:01:17.363Z,978.67
2018-01-01T17:02:17.360Z,978.54
2018-01-01T17:03:17.353Z,978.69
2018-01-01T17:04:17.334Z,978.65
2018-01-01T17:05:17.321Z,978.71
2018-01-01T17:06:17.311Z,978.66
2018-01-01T17:07:17.326Z,978.75
2018-01-01T17:08:17.292Z,978.61
2018-01-01T17:09:17.287Z,978.57
2018-01-01T17:10:17.279Z,978.53
2018-01-01T17:11:17.263Z,978.67
2018-01-01T17:12:17.254Z,978.60
2018-01-01T17:13:17.244Z,978.68
2018-01-01T17:14:17.232Z,978.79
2018-01-01T17:15:17.228Z,978.67
2018-01-01T17:16:17.212Z,978.68
2018-01-01T17:17:17.206Z,978.61
2018-01-01T17:18:17.196Z,978.62
2018-01-01T17:19:17.187Z,978.59
2018-01-01T17:20:17.174Z,978.53
2018-01-01T17:21:17.177Z,978.53
2018-01-01T17:22:17.155Z,978.48
2018-01-01T17:23:17.149Z,978.45
2018-01-01T17:24:17.135Z,978.49
2018-01-01T17:25:17.132Z,978.47
2018-01-01T17:26:17.119Z,978.44
2018-01-01T17:27:17.106Z,978.37
2018-01-01T17:28:17.103Z,978.41
2018-01-01T17:29:17.092Z,978.44
2018-01-01T17:30:17.077Z,978.45
2018-01-01T17:31:17.065Z,978.43
2018-01-01T17:32:17.058Z,978.46
2018-01-01T17:33:17.055Z,978.39
2018-01-01T17:34:17.036Z,978.34
2018-01-01T17:35:17.026Z,978.31
2018-01-01T17:36:17.013Z,978.31
2018-01-01T17:37:17.004Z,978.24
2018-01-01T17:38:16.994Z,978.25
2018-01-01T17:39:16.981Z,978.20
2018-01-01T17:40:16.965Z,978.14
2018-01-01T17:41:17.004Z,978.26
2018-01-01T17:42:16.932Z,978.22
2018-01-01T17:43:16.922Z,978.19
2018-01-01T17:44:16.903Z,978.24
2018-01-01T17:45:16.887Z,978.33
2018-01-01T17:46:16.874Z,978.27
2018-01-01T17:47:16.861Z,978.26
2018-01-01T17:48:16.862Z,978.29
2018-01-01T17:49:16.833Z,978.27
2018-01-01T17:50:16.820Z,978.15
2018-01-01T17:51:16.810Z,978.28
2018-01-01T17:52:16.797Z,978.24
2018-01-01T17:53:16.792Z,978.25
2018-01-01T17:54:16.778Z,978.16
2018-01-01T17:55:16.769Z,978.30
2018-01-01T17:56:16.749Z,978.19
2018-01-01T17:57:16.740Z,978.19
2018-01-01T17:58:16.727Z,978.12
2018-01-01T17:59:16.715Z,978.16
2018-01-01T18:00:16.707Z,978.06
2018-01-01T18:01:16.695Z,978.07
2018-01-01T18:02:16.686Z,978.05
2018-01-01T18:03:16.670Z,978.00
2018-01-01T18:04:16.660Z,977.98
2018-01-01T18:05:16.656Z,977.96
2018-01-01T18:06:16.638Z,977.90
2018-01-01T18:07:16.628Z,977.90
2018-01-01T18:08:16.618Z,977.90
2018-01-01T18:09:16.605Z,977.84
2018-01-01T18:10:16.599Z,977.88
2018-01-01T18:11:16.583Z,977.96
2018-01-01T18:12:16.577Z,977.92
2018-01-01T18:13:16.593Z,977.96
2018-01-01T18:14:16.573Z,977.96
2018-01-01T18:15:16.555Z,978.00
2018-01-01T18:16:16.551Z,978.05
2018-01-01T18:17:16.558Z,978.02
2018-01-01T18:18:16.539Z,978.06
2018-01-01T18:19:16.497Z,978.08
2018-01-01T18:20:16.484Z,978.08
2018-01-01T18:21:16.478Z,978.07
2018-01-01T18:22:16.462Z,978.09
2018-01-01T18:23:16.456Z,978.08
2018-01-01T18:24:16.442Z,978.06
2018-01-01T18:25:16.433Z,978.05
2018-01-01T18:26:16.446Z,978.04
2018-01-01T18:27:16.417Z,978.02
2018-01-01T18:28:16.408Z,978.04
2018-01-01T18:29:16.399Z,978.03
2018-01-01T18:30:16.409Z,977.98
2018-01-01T18:31:16.373Z,977.97
2018-01-01T18:32:16.363Z,977.91
2018-01-01T18:33:16.357Z,977.91
2018-01-01T18:34:17.238Z,977.95
2018-01-01T18:35:16.327Z,977.92
2018-01-01T18:36:16.316Z,977.94
2018-01-01T18:37:16.306Z,977.97
2018-01-01T18:38:16.296Z,977.85
2018-01-01T18:39:16.287Z,977.85
2018-01-01T18:40:16.280Z,977.86
2018-01-01T18:41:16.264Z,977.81
2018-01-01T18:42:16.251Z,977.84
2018-01-01T18:43:16.245Z,977.84
2018-01-01T18:44:16.232Z,977.82
2018-01-01T18:45:16.223Z,977.82
2018-01-01T18:46:16.216Z,977.79
2018-01-01T18:47:16.200Z,977.82
2018-01-01T18:48:16.188Z,977.74
2018-01-01T18:49:16.181Z,977.73
2018-01-01T18:50:16.172Z,977.72
2018-01-01T18:51:16.162Z,977.73
2018-01-01T18:52:16.146Z,977.65
2018-01-01T18:53:16.137Z,977.74
2018-01-01T18:54:16.124Z,977.67
2018-01-01T18:55:16.115Z,977.64
2018-01-01T18:56:16.105Z,977.68
2018-01-01T18:57:16.099Z,977.62
2018-01-01T18:58:16.086Z,977.61
2018-01-01T18:59:16.074Z,977.53
2018-01-01T19:00:16.064Z,977.59
2018-01-01T19:01:16.053Z,977.56
2018-01-01T19:02:16.048Z,977.58
2018-01-01T19:03:16.038Z,977.56
2018-01-01T19:04:16.026Z,977.47
2018-01-01T19:05:16.009Z,977.47
2018-01-01T19:06:15.997Z,977.48
2018-01-01T19:07:15.994Z,977.51
2018-01-01T19:08:15.981Z,977.50
2018-01-01T19:09:15.968Z,977.49
2018-01-01T19:10:15.956Z,977.47
2018-01-01T19:11:15.955Z,977.53
2018-01-01T19:12:16.009Z,977.52
2018-01-01T19:13:15.931Z,977.49
2018-01-01T19:14:15.918Z,977.47
2018-01-01T19:15:15.923Z,977.45
2018-01-01T19:16:15.893Z,977.43
2018-01-01T19:17:15.883Z,977.42
2018-01-01T19:18:15.867Z,977.34
2018-01-01T19:19:15.857Z,977.36
2018-01-01T19:20:15.838Z,977.35
2018-01-01T19:21:15.828Z,977.37
2018-01-01T19:22:15.819Z,977.36
2018-01-01T19:23:15.800Z,977.33
2018-01-01T19:24:15.787Z,977.30
2018-01-01T19:25:15.781Z,977.31
2018-01-01T19:26:15.765Z,977.20
2018-01-01T19:27:15.758Z,977.21
2018-01-01T19:28:15.740Z,977.30
2018-01-01T19:29:15.740Z,977.23
2018-01-01T19:30:15.721Z,977.21
2018-01-01T19:31:15.705Z,977.26
2018-01-01T19:32:15.695Z,977.21
2018-01-01T19:33:15.690Z,977.22
2018-01-01T19:34:15.673Z,977.11
2018-01-01T19:35:15.660Z,977.19
2018-01-01T19:36:15.651Z,977.21
2018-01-01T19:37:15.638Z,977.13
2018-01-01T19:38:15.631Z,977.18
2018-01-01T19:39:15.616Z,977.21
2018-01-01T19:40:15.606Z,977.20
2018-01-01T19:41:15.596Z,977.20
2018-01-01T19:42:15.584Z,977.17
2018-01-01T19:43:15.573Z,977.18
2018-01-01T19:44:15.568Z,977.19
2018-01-01T19:45:15.559Z,977.09
2018-01-01T19:46:15.547Z,977.11
2018-01-01T19:47:15.528Z,977.12
2018-01-01T19:48:15.521Z,977.09
2018-01-01T19:49:15.506Z,977.12
2018-01-01T19:50:15.496Z,977.07
2018-01-01T19:51:15.486Z,977.10
2018-01-01T19:52:15.486Z,977.10
2018-01-01T19:53:15.464Z,977.11
2018-01-01T19:54:15.456Z,977.01
2018-01-01T19:55:15.443Z,977.09
2018-01-01T19:56:15.436Z,977.15
2018-01-01T19:57:15.427Z,977.11
2018-01-01T19:58:15.417Z,977.11
2018-01-01T19:59:15.397Z,977.25
2018-01-01T20:00:15.400Z,977.11
2018-01-01T20:01:15.381Z,977.11
2018-01-01T20:02:15.371Z,977.05
2018-01-01T20:03:15.361Z,977.07
2018-01-01T20:04:15.346Z,977.13
2018-01-01T20:05:15.340Z,977.06
2018-01-01T20:06:15.325Z,977.12
2018-01-01T20:07:15.313Z,977.12
2018-01-01T20:08:15.303Z,977.14
2018-01-01T20:09:15.293Z,977.08
2018-01-01T20:10:15.282Z,977.10
2018-01-01T20:11:15.271Z,977.10
2018-01-01T20:12:15.261Z,977.03
2018-01-01T20:13:15.255Z,977.15
2018-01-01T20:14:15.242Z,977.11
2018-01-01T20:15:15.229Z,977.10
2018-01-01T20:16:15.220Z,977.15
2018-01-01T20:17:15.204Z,977.13
2018-01-01T20:18:15.197Z,977.14
2018-01-01T20:19:15.188Z,977.13
2018-01-01T20:20:15.188Z,977.28
2018-01-01T20:21:15.169Z,977.14
2018-01-01T20:22:15.162Z,977.24
2018-01-01T20:23:15.142Z,977.21
2018-01-01T20:24:15.133Z,977.25
2018-01-01T20:25:15.123Z,977.23
2018-01-01T20:26:15.114Z,977.35
2018-01-01T20:27:15.110Z,977.35
2018-01-01T20:28:15.091Z,977.28
2018-01-01T20:29:15.082Z,977.27
2018-01-01T20:30:15.070Z,977.27
2018-01-01T20:31:15.060Z,977.35
2018-01-01T20:32:15.052Z,977.21
2018-01-01T20:33:15.043Z,977.31
2018-01-01T20:34:15.031Z,977.29
2018-01-01T20:35:15.028Z,977.35
2018-01-01T20:36:15.006Z,977.34
2018-01-01T20:37:15.006Z,977.41
2018-01-01T20:38:14.987Z,977.32
2018-01-01T20:39:14.973Z,977.32
2018-01-01T20:40:14.960Z,977.38
2018-01-01T20:41:14.954Z,977.36
2018-01-01T20:42:14.944Z,977.30
2018-01-01T20:43:14.937Z,977.39
2018-01-01T20:44:14.925Z,977.54
2018-01-01T20:45:14.915Z,977.40
2018-01-01T20:46:14.903Z,977.40
2018-01-01T20:47:14.896Z,977.44
2018-01-01T20:48:14.880Z,977.47
2018-01-01T20:49:14.877Z,977.36
2018-01-01T20:50:14.866Z,977.41
2018-01-01T20:51:14.860Z,977.48
2018-01-01T20:52:14.842Z,977.49
2018-01-01T20:53:14.832Z,977.47
2018-01-01T20:54:14.816Z,977.43
2018-01-01T20:55:14.810Z,977.48
2018-01-01T20:56:14.793Z,977.43
2018-01-01T20:57:14.787Z,977.50
2018-01-01T20:58:14.781Z,977.43
2018-01-01T20:59:14.768Z,977.43
2018-01-01T21:00:14.756Z,977.42
2018-01-01T21:01:14.749Z,977.46
2018-01-01T21:02:14.735Z,977.45
2018-01-01T21:03:14.723Z,977.43
2018-01-01T21:04:14.727Z,977.46
2018-01-01T21:05:14.700Z,977.52
2018-01-01T21:06:14.692Z,977.49
2018-01-01T21:07:14.680Z,977.57
2018-01-01T21:08:14.672Z,977.58
2018-01-01T21:09:14.659Z,977.56
2018-01-01T21:10:14.652Z,977.66
2018-01-01T21:11:14.643Z,977.47
2018-01-01T21:12:14.630Z,977.48
2018-01-01T21:13:14.608Z,977.53
2018-01-01T21:14:14.598Z,977.51
2018-01-01T21:15:14.582Z,977.52
2018-01-01T21:16:14.569Z,977.66
2018-01-01T21:17:14.560Z,977.60
2018-01-01T21:18:14.536Z,977.55
2018-01-01T21:19:14.523Z,977.63
2018-01-01T21:20:14.519Z,977.64
2018-01-01T21:21:14.507Z,977.69
2018-01-01T21:22:14.487Z,977.71
2018-01-01T21:23:14.474Z,977.78
2018-01-01T21:24:14.468Z,977.71
2018-01-01T21:25:14.452Z,977.77
2018-01-01T21:26:14.441Z,977.74
2018-01-01T21:27:14.432Z,977.74
2018-01-01T21:28:14.417Z,977.69
2018-01-01T21:29:14.416Z,977.81
2018-01-01T21:30:14.401Z,977.80
2018-01-01T21:31:14.385Z,977.86
2018-01-01T21:32:14.372Z,977.83
2018-01-01T21:33:14.369Z,977.91
2018-01-01T21:34:14.350Z,977.91
2018-01-01T21:35:14.354Z,977.87
2018-01-01T21:36:14.328Z,977.88
2018-01-01T21:37:14.324Z,977.95
2018-01-01T21:38:14.312Z,977.97
2018-01-01T21:39:14.298Z,978.04
2018-01-01T21:40:14.283Z,978.00
2018-01-01T21:41:14.273Z,978.03
2018-01-01T21:42:14.264Z,977.95
2018-01-01T21:43:14.251Z,978.02
2018-01-01T21:44:14.242Z,978.09
2018-01-01T21:45:14.232Z,978.09
2018-01-01T21:46:14.216Z,978.07
2018-01-01T21:47:14.210Z,978.07
2018-01-01T21:48:14.203Z,978.10
2018-01-01T21:49:14.193Z,978.09
2018-01-01T21:50:14.175Z,978.07
2018-01-01T21:51:14.165Z,978.10
2018-01-01T21:52:14.168Z,978.14
2018-01-01T21:53:14.146Z,978.18
2018-01-01T21:54:14.133Z,978.27
2018-01-01T21:55:14.120Z,978.25
2018-01-01T21:56:14.114Z,978.25
2018-01-01T21:57:14.101Z,978.26
2018-01-01T21:58:14.085Z,978.26
2018-01-01T21:59:14.079Z,978.39
2018-01-01T22:00:14.066Z,978.40
2018-01-01T22:01:14.058Z,978.38
2018-01-01T22:02:14.043Z,978.40
2018-01-01T22:03:14.034Z,978.43
2018-01-01T22:04:14.025Z,978.45
2018-01-01T22:05:14.012Z,978.44
2018-01-01T22:06:14.005Z,978.57
2018-01-01T22:07:13.995Z,978.53
2018-01-01T22:08:13.983Z,978.51
2018-01-01T22:09:13.971Z,978.54
2018-01-01T22:10:13.957Z,978.60
2018-01-01T22:11:13.951Z,978.61
2018-01-01T22:12:13.932Z,978.60
2018-01-01T22:13:13.923Z,978.61
2018-01-01T22:14:13.910Z,978.63
2018-01-01T22:15:13.900Z,978.69
2018-01-01T22:16:13.888Z,978.67
2018-01-01T22:17:13.882Z,978.75
2018-01-01T22:18:13.868Z,978.75
2018-01-01T22:19:13.855Z,978.79
2018-01-01T22:20:13.849Z,978.74
2018-01-01T22:21:13.840Z,978.80
2018-01-01T22:22:13.820Z,978.85
2018-01-01T22:23:13.811Z,978.85
2018-01-01T22:24:13.801Z,978.86
2018-01-01T22:25:13.792Z,978.93
2018-01-01T22:26:13.779Z,979.00
2018-01-01T22:27:13.785Z,979.10
2018-01-01T22:28:13.760Z,979.08
2018-01-01T22:29:13.745Z,979.16
2018-01-01T22:30:13.735Z,979.15
2018-01-01T22:31:13.725Z,979.13
2018-01-01T22:32:13.719Z,979.15
2018-01-01T22:33:13.700Z,979.23
2018-01-01T22:34:13.687Z,979.21
2018-01-01T22:35:13.677Z,979.25
2018-01-01T22:36:13.665Z,979.33
2018-01-01T22:37:13.655Z,979.42
2018-01-01T22:38:13.642Z,979.44
2018-01-01T22:39:13.636Z,979.43
2018-01-01T22:40:13.626Z,979.45
2018-01-01T22:41:13.610Z,979.49
2018-01-01T22:42:13.634Z,979.56
2018-01-01T22:43:13.588Z,979.54
2018-01-01T22:44:13.572Z,979.57
2018-01-01T22:45:13.569Z,979.58
2018-01-01T22:46:13.556Z,979.61
2018-01-01T22:47:13.541Z,979.72
2018-01-01T22:48:13.532Z,979.68
2018-01-01T22:49:13.519Z,979.68
2018-01-01T22:50:13.507Z,979.70
2018-01-01T22:51:13.497Z,979.76
2018-01-01T22:52:13.484Z,979.70
2018-01-01T22:53:13.475Z,979.86
2018-01-01T22:54:13.461Z,979.85
2018-01-01T22:55:13.452Z,979.91
2018-01-01T22:56:13.442Z,979.90
2018-01-01T22:57:13.430Z,979.94
2018-01-01T22:58:13.417Z,979.98
2018-01-01T22:59:13.407Z,980.03
2018-01-01T23:00:13.428Z,980.10
2018-01-01T23:01:13.385Z,980.13
2018-01-01T23:02:13.375Z,980.21
2018-01-01T23:03:13.359Z,980.24
2018-01-01T23:04:13.356Z,980.25
2018-01-01T23:05:13.338Z,980.23
2018-01-01T23:06:13.328Z,980.32
2018-01-01T23:07:13.322Z,980.33
2018-01-01T23:08:13.302Z,980.37
2018-01-01T23:09:13.293Z,980.44
2018-01-01T23:10:13.281Z,980.42
2018-01-01T23:11:13.270Z,980.46
2018-01-01T23:12:13.261Z,980.57
2018-01-01T23:13:13.248Z,980.54
2018-01-01T23:14:13.238Z,980.56
2018-01-01T23:15:13.232Z,980.60
2018-01-01T23:16:13.216Z,980.54
2018-01-01T23:17:13.203Z,980.65
2018-01-01T23:18:13.221Z,980.67
2018-01-01T23:19:13.181Z,980.62
2018-01-01T23:20:13.173Z,980.73
2018-01-01T23:21:13.157Z,980.78
2018-01-01T23:22:13.149Z,980.77
2018-01-01T23:23:13.133Z,980.83
2018-01-01T23:24:13.120Z,980.82
2018-01-01T23:25:13.110Z,980.89
2018-01-01T23:26:13.130Z,980.91
2018-01-01T23:27:13.088Z,980.96
2018-01-01T23:28:13.075Z,980.91
2018-01-01T23:29:13.073Z,980.96
2018-01-01T23:30:13.088Z,981.00
2018-01-01T23:31:13.043Z,980.99
2018-01-01T23:32:13.031Z,981.07
2018-01-01T23:33:13.017Z,981.11
2018-01-01T23:34:13.030Z,981.11
2018-01-01T23:35:12.992Z,981.19
2018-01-01T23:36:12.986Z,981.20
2018-01-01T23:37:12.976Z,981.22
2018-01-01T23:38:12.963Z,981.27
2018-01-01T23:39:12.950Z,981.35
2018-01-01T23:40:13.037Z,981.27
2018-01-01T23:41:12.924Z,981.38
2018-01-01T23:42:12.910Z,981.38
2018-01-01T23:43:12.963Z,981.40
2018-01-01T23:44:12.888Z,981.50
2018-01-01T23:45:12.875Z,981.46
2018-01-01T23:46:12.862Z,981.55
2018-01-01T23:47:12.853Z,981.57
2018-01-01T23:48:12.840Z,981.51
2018-01-01T23:49:12.830Z,981.52
2018-01-01T23:50:12.830Z,981.53
2018-01-01T23:51:12.817Z,981.55
2018-01-01T23:52:12.795Z,981.55
2018-01-01T23:53:12.787Z,981.56
2018-01-01T23:54:12.770Z,981.62
2018-01-01T23:55:12.764Z,981.62
2018-01-01T23:56:12.754Z,981.70
2018-01-01T23:57:12.745Z,981.70
2018-01-01T23:58:12.725Z,981.74
2018-01-01T23:59:12.716Z,981.78
